Airport View

Enter AWOS ICAO identifier for current METAR.

ex. KFNL

KHSP 261135Z AUTO 29005KT 10SM CLR 17/16 A3028 RMK AO2 T01690156

26 Jun 2019 12:08

Frequency: 118.8

Phone: 540-839-5974

Other Area AWOS: KLWB - KROA - KW13 - KSHD

TAF KLWB 261120Z 2612/2712 00000KT 1/4SM FG OVC001 FM261230 VRB03KT 3SM BR SCT015 FM261300 30004KT P6SM SCT250 FM261600 30008KT P6SM FEW040 BKN250 FM270000 VRB03KT P6SM SCT250 FM270800 00000KT 1SM BR SCT005 SCT250